Sublette, Illinois
Current Conditions -  °F | °C
As of 8:55 AM on Sunday 23 Nov 2014 (Local Time) from KRPJ Reporting Station
Moderate Rain Moderate Rain  
Wind Chill: 40°   Ceiling: 3800
Heat Index: 46°   Visibility: 3mi
Dew Point: 44°   Wind: 10mph
Humidity: 95%   Direction: 160°SSE
Pressure: 29.7"   Gusts: NA
Location:  41.64°N, 89.23°W
Report Text: KRPJ 231455Z AUTO 16009KT 3SM RA BKN038 OVC046 08/07 A2970 RMK AO2 P0007 60007 T00750068
Loading
Personal Weather Stations






























Interactive Weather Map New forecast layout! Learn more

10-Day Weather Forecast

Advertisements
Track Severe Weather on mobile